sensor_id;sensor_type;location;lat;lon;timestamp;P1;durP1;ratioP1;P2;durP2;ratioP2
11743;SDS011;5929;51.906;7.674;2022-12-18T00:00:15;61.83;;;27.80;;
11743;SDS011;5929;51.906;7.674;2022-12-18T00:02:42;53.63;;;27.50;;
11743;SDS011;5929;51.906;7.674;2022-12-18T00:05:09;56.97;;;26.33;;
11743;SDS011;5929;51.906;7.674;2022-12-18T00:07:36;52.33;;;26.48;;
11743;SDS011;5929;51.906;7.674;2022-12-18T00:10:03;55.38;;;25.60;;
11743;SDS011;5929;51.906;7.674;2022-12-18T00:12:31;58.42;;;26.95;;
11743;SDS011;5929;51.906;7.674;2022-12-18T00:14:58;62.15;;;30.13;;
11743;SDS011;5929;51.906;7.674;2022-12-18T00:17:26;63.85;;;30.90;;
11743;SDS011;5929;51.906;7.674;2022-12-18T00:19:53;54.65;;;26.23;;
11743;SDS011;5929;51.906;7.674;2022-12-18T00:22:19;70.07;;;29.10;;
11743;SDS011;5929;51.906;7.674;2022-12-18T00:24:46;62.30;;;29.80;;
11743;SDS011;5929;51.906;7.674;2022-12-18T00:27:13;62.17;;;28.88;;
11743;SDS011;5929;51.906;7.674;2022-12-18T00:29:40;64.35;;;28.83;;
11743;SDS011;5929;51.906;7.674;2022-12-18T00:32:06;53.67;;;27.60;;
11743;SDS011;5929;51.906;7.674;2022-12-18T00:34:35;61.45;;;27.85;;
11743;SDS011;5929;51.906;7.674;2022-12-18T00:37:06;56.63;;;26.80;;
11743;SDS011;5929;51.906;7.674;2022-12-18T00:39:33;57.53;;;25.45;;
11743;SDS011;5929;51.906;7.674;2022-12-18T00:41:59;56.15;;;25.38;;
11743;SDS011;5929;51.906;7.674;2022-12-18T00:44:44;49.42;;;24.80;;
11743;SDS011;5929;51.906;7.674;2022-12-18T00:47:11;46.95;;;25.52;;
11743;SDS011;5929;51.906;7.674;2022-12-18T00:49:39;63.72;;;29.40;;
11743;SDS011;5929;51.906;7.674;2022-12-18T00:52:06;64.63;;;28.65;;
11743;SDS011;5929;51.906;7.674;2022-12-18T00:54:32;58.33;;;28.08;;
11743;SDS011;5929;51.906;7.674;2022-12-18T00:56:59;57.97;;;26.70;;
11743;SDS011;5929;51.906;7.674;2022-12-18T00:59:26;59.00;;;26.80;;
11743;SDS011;5929;51.906;7.674;2022-12-18T01:01:56;51.95;;;26.92;;
11743;SDS011;5929;51.906;7.674;2022-12-18T01:04:22;56.30;;;26.58;;
11743;SDS011;5929;51.906;7.674;2022-12-18T01:06:51;61.15;;;27.67;;
11743;SDS011;5929;51.906;7.674;2022-12-18T01:09:20;57.10;;;26.17;;
11743;SDS011;5929;51.906;7.674;2022-12-18T01:11:46;54.97;;;25.77;;
11743;SDS011;5929;51.906;7.674;2022-12-18T01:14:13;52.45;;;25.92;;
11743;SDS011;5929;51.906;7.674;2022-12-18T01:16:40;53.53;;;25.85;;
11743;SDS011;5929;51.906;7.674;2022-12-18T01:19:07;51.75;;;25.05;;
11743;SDS011;5929;51.906;7.674;2022-12-18T01:21:34;52.53;;;24.70;;
11743;SDS011;5929;51.906;7.674;2022-12-18T01:24:02;55.92;;;24.52;;
11743;SDS011;5929;51.906;7.674;2022-12-18T01:26:29;52.75;;;26.42;;
11743;SDS011;5929;51.906;7.674;2022-12-18T01:28:56;60.40;;;27.67;;
11743;SDS011;5929;51.906;7.674;2022-12-18T01:31:24;55.50;;;26.42;;
11743;SDS011;5929;51.906;7.674;2022-12-18T01:33:53;57.20;;;26.42;;
11743;SDS011;5929;51.906;7.674;2022-12-18T01:36:22;50.30;;;24.95;;
11743;SDS011;5929;51.906;7.674;2022-12-18T01:38:52;54.53;;;24.35;;
11743;SDS011;5929;51.906;7.674;2022-12-18T01:41:23;52.90;;;24.02;;
11743;SDS011;5929;51.906;7.674;2022-12-18T01:43:52;50.35;;;23.33;;
11743;SDS011;5929;51.906;7.674;2022-12-18T01:46:21;51.58;;;25.02;;
11743;SDS011;5929;51.906;7.674;2022-12-18T01:48:50;52.30;;;25.95;;
11743;SDS011;5929;51.906;7.674;2022-12-18T01:51:18;53.65;;;24.05;;
11743;SDS011;5929;51.906;7.674;2022-12-18T01:53:45;47.42;;;23.00;;
11743;SDS011;5929;51.906;7.674;2022-12-18T01:56:14;50.45;;;24.13;;
11743;SDS011;5929;51.906;7.674;2022-12-18T01:58:46;48.47;;;24.05;;
11743;SDS011;5929;51.906;7.674;2022-12-18T02:01:20;54.55;;;25.17;;
11743;SDS011;5929;51.906;7.674;2022-12-18T02:03:48;46.80;;;24.10;;
11743;SDS011;5929;51.906;7.674;2022-12-18T02:06:17;49.25;;;24.98;;
11743;SDS011;5929;51.906;7.674;2022-12-18T02:08:49;53.28;;;24.20;;
11743;SDS011;5929;51.906;7.674;2022-12-18T02:11:26;45.25;;;23.58;;
11743;SDS011;5929;51.906;7.674;2022-12-18T02:14:09;49.22;;;24.55;;
11743;SDS011;5929;51.906;7.674;2022-12-18T02:16:43;52.00;;;22.92;;
11743;SDS011;5929;51.906;7.674;2022-12-18T02:19:20;49.55;;;24.27;;
11743;SDS011;5929;51.906;7.674;2022-12-18T02:22:05;53.58;;;25.23;;
11743;SDS011;5929;51.906;7.674;2022-12-18T02:24:41;51.58;;;23.60;;
11743;SDS011;5929;51.906;7.674;2022-12-18T02:27:21;52.80;;;24.65;;
11743;SDS011;5929;51.906;7.674;2022-12-18T02:29:49;51.55;;;25.92;;
11743;SDS011;5929;51.906;7.674;2022-12-18T02:32:20;50.20;;;24.58;;
11743;SDS011;5929;51.906;7.674;2022-12-18T02:34:51;53.05;;;25.30;;
11743;SDS011;5929;51.906;7.674;2022-12-18T02:37:23;57.03;;;26.70;;
11743;SDS011;5929;51.906;7.674;2022-12-18T02:39:52;55.30;;;26.38;;
11743;SDS011;5929;51.906;7.674;2022-12-18T02:42:24;51.17;;;24.80;;
11743;SDS011;5929;51.906;7.674;2022-12-18T02:44:54;53.45;;;26.17;;
11743;SDS011;5929;51.906;7.674;2022-12-18T02:47:22;55.08;;;25.10;;
11743;SDS011;5929;51.906;7.674;2022-12-18T02:49:55;52.28;;;26.08;;
11743;SDS011;5929;51.906;7.674;2022-12-18T02:52:31;54.65;;;25.58;;
11743;SDS011;5929;51.906;7.674;2022-12-18T02:55:06;52.75;;;23.55;;
11743;SDS011;5929;51.906;7.674;2022-12-18T02:57:42;52.25;;;25.60;;
11743;SDS011;5929;51.906;7.674;2022-12-18T03:00:14;53.75;;;26.17;;
11743;SDS011;5929;51.906;7.674;2022-12-18T03:02:45;48.38;;;23.45;;
11743;SDS011;5929;51.906;7.674;2022-12-18T03:05:16;57.25;;;26.08;;
11743;SDS011;5929;51.906;7.674;2022-12-18T03:07:50;53.15;;;24.50;;
11743;SDS011;5929;51.906;7.674;2022-12-18T03:10:21;52.60;;;25.08;;
11743;SDS011;5929;51.906;7.674;2022-12-18T03:12:54;53.47;;;25.13;;
11743;SDS011;5929;51.906;7.674;2022-12-18T03:15:27;55.97;;;27.38;;
11743;SDS011;5929;51.906;7.674;2022-12-18T03:17:57;53.90;;;26.98;;
11743;SDS011;5929;51.906;7.674;2022-12-18T03:20:28;45.92;;;26.23;;
11743;SDS011;5929;51.906;7.674;2022-12-18T03:22:59;54.08;;;25.30;;
11743;SDS011;5929;51.906;7.674;2022-12-18T03:25:32;49.85;;;24.80;;
11743;SDS011;5929;51.906;7.674;2022-12-18T03:28:05;51.63;;;25.17;;
11743;SDS011;5929;51.906;7.674;2022-12-18T03:30:33;50.47;;;25.75;;
11743;SDS011;5929;51.906;7.674;2022-12-18T03:33:05;48.47;;;24.88;;
11743;SDS011;5929;51.906;7.674;2022-12-18T03:35:35;52.38;;;24.95;;
11743;SDS011;5929;51.906;7.674;2022-12-18T03:38:05;55.00;;;26.88;;
11743;SDS011;5929;51.906;7.674;2022-12-18T03:40:34;55.13;;;25.15;;
11743;SDS011;5929;51.906;7.674;2022-12-18T03:43:08;49.53;;;25.85;;
11743;SDS011;5929;51.906;7.674;2022-12-18T03:45:41;50.13;;;24.65;;
11743;SDS011;5929;51.906;7.674;2022-12-18T03:48:14;49.78;;;26.42;;
11743;SDS011;5929;51.906;7.674;2022-12-18T03:50:45;46.90;;;24.10;;
11743;SDS011;5929;51.906;7.674;2022-12-18T03:53:18;48.38;;;25.08;;
11743;SDS011;5929;51.906;7.674;2022-12-18T03:55:51;50.17;;;24.65;;
11743;SDS011;5929;51.906;7.674;2022-12-18T03:58:20;51.90;;;24.02;;
11743;SDS011;5929;51.906;7.674;2022-12-18T04:00:50;48.83;;;24.17;;
11743;SDS011;5929;51.906;7.674;2022-12-18T04:03:18;49.00;;;24.48;;
11743;SDS011;5929;51.906;7.674;2022-12-18T04:05:47;47.42;;;25.38;;
11743;SDS011;5929;51.906;7.674;2022-12-18T04:08:16;50.90;;;25.20;;
11743;SDS011;5929;51.906;7.674;2022-12-18T04:10:44;46.05;;;24.25;;
11743;SDS011;5929;51.906;7.674;2022-12-18T04:13:10;46.92;;;23.65;;
11743;SDS011;5929;51.906;7.674;2022-12-18T04:15:39;54.05;;;25.13;;
11743;SDS011;5929;51.906;7.674;2022-12-18T04:18:07;49.70;;;24.00;;
11743;SDS011;5929;51.906;7.674;2022-12-18T04:20:34;41.47;;;23.23;;
11743;SDS011;5929;51.906;7.674;2022-12-18T04:23:00;47.85;;;23.83;;
11743;SDS011;5929;51.906;7.674;2022-12-18T04:25:27;45.80;;;24.42;;
11743;SDS011;5929;51.906;7.674;2022-12-18T04:27:54;46.35;;;22.90;;
11743;SDS011;5929;51.906;7.674;2022-12-18T04:30:21;50.63;;;22.60;;
11743;SDS011;5929;51.906;7.674;2022-12-18T04:32:49;44.30;;;22.67;;
11743;SDS011;5929;51.906;7.674;2022-12-18T04:35:16;52.72;;;24.88;;
11743;SDS011;5929;51.906;7.674;2022-12-18T04:37:42;52.25;;;24.00;;
11743;SDS011;5929;51.906;7.674;2022-12-18T04:40:10;50.40;;;23.90;;
11743;SDS011;5929;51.906;7.674;2022-12-18T04:42:38;44.38;;;23.65;;
11743;SDS011;5929;51.906;7.674;2022-12-18T04:45:05;46.22;;;22.60;;
11743;SDS011;5929;51.906;7.674;2022-12-18T04:47:36;50.55;;;24.73;;
11743;SDS011;5929;51.906;7.674;2022-12-18T04:50:04;49.22;;;22.83;;
11743;SDS011;5929;51.906;7.674;2022-12-18T04:52:32;49.28;;;23.80;;
11743;SDS011;5929;51.906;7.674;2022-12-18T04:54:59;51.15;;;22.67;;
11743;SDS011;5929;51.906;7.674;2022-12-18T04:57:25;46.10;;;23.75;;
11743;SDS011;5929;51.906;7.674;2022-12-18T04:59:52;39.88;;;20.95;;
11743;SDS011;5929;51.906;7.674;2022-12-18T05:02:19;40.55;;;20.23;;
11743;SDS011;5929;51.906;7.674;2022-12-18T05:04:46;37.95;;;19.83;;
11743;SDS011;5929;51.906;7.674;2022-12-18T05:07:14;40.45;;;18.83;;
11743;SDS011;5929;51.906;7.674;2022-12-18T05:09:41;38.28;;;19.17;;
11743;SDS011;5929;51.906;7.674;2022-12-18T05:12:07;40.60;;;20.52;;
11743;SDS011;5929;51.906;7.674;2022-12-18T05:14:34;40.22;;;19.73;;
11743;SDS011;5929;51.906;7.674;2022-12-18T05:17:01;43.22;;;20.55;;
11743;SDS011;5929;51.906;7.674;2022-12-18T05:19:28;37.55;;;18.38;;
11743;SDS011;5929;51.906;7.674;2022-12-18T05:21:54;37.45;;;19.10;;
11743;SDS011;5929;51.906;7.674;2022-12-18T05:24:23;37.67;;;19.02;;
11743;SDS011;5929;51.906;7.674;2022-12-18T05:26:49;34.03;;;17.30;;
11743;SDS011;5929;51.906;7.674;2022-12-18T05:29:16;39.03;;;18.13;;
11743;SDS011;5929;51.906;7.674;2022-12-18T05:31:43;35.42;;;17.65;;
11743;SDS011;5929;51.906;7.674;2022-12-18T05:34:10;37.90;;;18.33;;
11743;SDS011;5929;51.906;7.674;2022-12-18T05:36:37;35.13;;;18.85;;
11743;SDS011;5929;51.906;7.674;2022-12-18T05:39:03;39.20;;;20.17;;
11743;SDS011;5929;51.906;7.674;2022-12-18T05:41:32;40.00;;;19.60;;
11743;SDS011;5929;51.906;7.674;2022-12-18T05:43:59;39.47;;;19.63;;
11743;SDS011;5929;51.906;7.674;2022-12-18T05:46:26;44.38;;;21.15;;
11743;SDS011;5929;51.906;7.674;2022-12-18T05:48:53;39.97;;;20.60;;
11743;SDS011;5929;51.906;7.674;2022-12-18T05:51:22;44.63;;;20.92;;
11743;SDS011;5929;51.906;7.674;2022-12-18T05:53:49;53.17;;;22.13;;
11743;SDS011;5929;51.906;7.674;2022-12-18T05:56:17;40.40;;;20.73;;
11743;SDS011;5929;51.906;7.674;2022-12-18T05:58:46;39.65;;;19.58;;
11743;SDS011;5929;51.906;7.674;2022-12-18T06:01:17;42.78;;;20.90;;
11743;SDS011;5929;51.906;7.674;2022-12-18T06:03:46;42.45;;;20.40;;
11743;SDS011;5929;51.906;7.674;2022-12-18T06:06:14;43.60;;;22.63;;
11743;SDS011;5929;51.906;7.674;2022-12-18T06:08:41;37.47;;;20.17;;
11743;SDS011;5929;51.906;7.674;2022-12-18T06:11:08;50.10;;;22.20;;
11743;SDS011;5929;51.906;7.674;2022-12-18T06:13:34;40.78;;;20.40;;
11743;SDS011;5929;51.906;7.674;2022-12-18T06:16:03;36.33;;;18.48;;
11743;SDS011;5929;51.906;7.674;2022-12-18T06:18:31;42.70;;;18.73;;
11743;SDS011;5929;51.906;7.674;2022-12-18T06:20:58;44.13;;;19.88;;
11743;SDS011;5929;51.906;7.674;2022-12-18T06:23:25;39.97;;;19.10;;
11743;SDS011;5929;51.906;7.674;2022-12-18T06:25:52;44.80;;;21.63;;
11743;SDS011;5929;51.906;7.674;2022-12-18T06:28:19;44.92;;;21.25;;
11743;SDS011;5929;51.906;7.674;2022-12-18T06:30:47;45.42;;;20.92;;
11743;SDS011;5929;51.906;7.674;2022-12-18T06:33:15;39.90;;;20.48;;
11743;SDS011;5929;51.906;7.674;2022-12-18T06:35:42;39.88;;;19.95;;
11743;SDS011;5929;51.906;7.674;2022-12-18T06:38:09;40.03;;;19.25;;
11743;SDS011;5929;51.906;7.674;2022-12-18T06:40:36;40.25;;;20.50;;
11743;SDS011;5929;51.906;7.674;2022-12-18T06:43:06;34.90;;;18.40;;
11743;SDS011;5929;51.906;7.674;2022-12-18T06:45:33;38.65;;;17.85;;
11743;SDS011;5929;51.906;7.674;2022-12-18T06:48:00;31.27;;;17.38;;
11743;SDS011;5929;51.906;7.674;2022-12-18T06:50:28;37.15;;;17.75;;
11743;SDS011;5929;51.906;7.674;2022-12-18T06:52:55;37.22;;;18.77;;
11743;SDS011;5929;51.906;7.674;2022-12-18T06:55:22;40.80;;;18.42;;
11743;SDS011;5929;51.906;7.674;2022-12-18T06:57:49;36.80;;;18.02;;
11743;SDS011;5929;51.906;7.674;2022-12-18T07:00:16;38.35;;;17.88;;
11743;SDS011;5929;51.906;7.674;2022-12-18T07:02:43;36.17;;;17.77;;
11743;SDS011;5929;51.906;7.674;2022-12-18T07:05:12;32.40;;;15.90;;
11743;SDS011;5929;51.906;7.674;2022-12-18T07:07:40;31.60;;;16.67;;
11743;SDS011;5929;51.906;7.674;2022-12-18T07:10:07;32.20;;;16.15;;
11743;SDS011;5929;51.906;7.674;2022-12-18T07:12:35;33.25;;;16.10;;
11743;SDS011;5929;51.906;7.674;2022-12-18T07:15:02;30.70;;;17.30;;
11743;SDS011;5929;51.906;7.674;2022-12-18T07:17:29;31.98;;;17.02;;
11743;SDS011;5929;51.906;7.674;2022-12-18T07:19:56;35.15;;;18.25;;
11743;SDS011;5929;51.906;7.674;2022-12-18T07:22:25;31.02;;;16.23;;
11743;SDS011;5929;51.906;7.674;2022-12-18T07:24:55;31.27;;;17.67;;
11743;SDS011;5929;51.906;7.674;2022-12-18T07:27:22;29.20;;;15.38;;
11743;SDS011;5929;51.906;7.674;2022-12-18T07:29:49;30.10;;;14.60;;
11743;SDS011;5929;51.906;7.674;2022-12-18T07:32:16;32.38;;;17.00;;
11743;SDS011;5929;51.906;7.674;2022-12-18T07:34:43;38.25;;;17.63;;
11743;SDS011;5929;51.906;7.674;2022-12-18T07:37:10;27.60;;;16.02;;
11743;SDS011;5929;51.906;7.674;2022-12-18T07:39:36;31.23;;;16.42;;
11743;SDS011;5929;51.906;7.674;2022-12-18T07:42:07;29.05;;;16.05;;
11743;SDS011;5929;51.906;7.674;2022-12-18T07:44:51;29.67;;;15.82;;
11743;SDS011;5929;51.906;7.674;2022-12-18T07:47:18;28.40;;;15.27;;
11743;SDS011;5929;51.906;7.674;2022-12-18T07:49:45;27.98;;;16.08;;
11743;SDS011;5929;51.906;7.674;2022-12-18T07:52:12;40.25;;;17.13;;
11743;SDS011;5929;51.906;7.674;2022-12-18T07:54:39;40.47;;;19.50;;
11743;SDS011;5929;51.906;7.674;2022-12-18T07:57:07;40.17;;;20.92;;
11743;SDS011;5929;51.906;7.674;2022-12-18T07:59:34;39.10;;;21.23;;
11743;SDS011;5929;51.906;7.674;2022-12-18T08:02:01;35.45;;;19.02;;
11743;SDS011;5929;51.906;7.674;2022-12-18T08:04:28;33.58;;;18.73;;
11743;SDS011;5929;51.906;7.674;2022-12-18T08:06:55;30.85;;;17.48;;
11743;SDS011;5929;51.906;7.674;2022-12-18T08:09:22;27.05;;;14.60;;
11743;SDS011;5929;51.906;7.674;2022-12-18T08:11:48;31.58;;;15.95;;
11743;SDS011;5929;51.906;7.674;2022-12-18T08:14:16;23.75;;;14.23;;
11743;SDS011;5929;51.906;7.674;2022-12-18T08:16:43;31.33;;;15.77;;
11743;SDS011;5929;51.906;7.674;2022-12-18T08:19:10;28.77;;;17.23;;
11743;SDS011;5929;51.906;7.674;2022-12-18T08:21:37;27.50;;;15.05;;
11743;SDS011;5929;51.906;7.674;2022-12-18T08:24:04;24.27;;;14.57;;
11743;SDS011;5929;51.906;7.674;2022-12-18T08:26:31;27.70;;;14.30;;
11743;SDS011;5929;51.906;7.674;2022-12-18T08:28:58;28.70;;;16.38;;
11743;SDS011;5929;51.906;7.674;2022-12-18T08:31:27;23.50;;;14.18;;
11743;SDS011;5929;51.906;7.674;2022-12-18T08:33:55;25.65;;;14.55;;
11743;SDS011;5929;51.906;7.674;2022-12-18T08:36:25;30.02;;;15.25;;
11743;SDS011;5929;51.906;7.674;2022-12-18T08:38:52;27.13;;;15.75;;
11743;SDS011;5929;51.906;7.674;2022-12-18T08:41:19;28.33;;;15.35;;
11743;SDS011;5929;51.906;7.674;2022-12-18T08:43:46;25.25;;;15.30;;
11743;SDS011;5929;51.906;7.674;2022-12-18T08:46:34;31.63;;;15.82;;
11743;SDS011;5929;51.906;7.674;2022-12-18T08:49:02;30.38;;;16.30;;
11743;SDS011;5929;51.906;7.674;2022-12-18T08:51:30;32.13;;;17.00;;
11743;SDS011;5929;51.906;7.674;2022-12-18T08:53:59;33.88;;;18.40;;
11743;SDS011;5929;51.906;7.674;2022-12-18T08:56:26;33.70;;;17.65;;
11743;SDS011;5929;51.906;7.674;2022-12-18T08:58:54;36.15;;;18.95;;
11743;SDS011;5929;51.906;7.674;2022-12-18T09:01:22;30.50;;;15.40;;
11743;SDS011;5929;51.906;7.674;2022-12-18T09:03:50;28.60;;;14.27;;
11743;SDS011;5929;51.906;7.674;2022-12-18T09:06:18;31.73;;;14.73;;
11743;SDS011;5929;51.906;7.674;2022-12-18T09:08:45;27.95;;;14.90;;
11743;SDS011;5929;51.906;7.674;2022-12-18T09:11:13;24.23;;;14.02;;
11743;SDS011;5929;51.906;7.674;2022-12-18T09:13:41;22.75;;;13.93;;
11743;SDS011;5929;51.906;7.674;2022-12-18T09:16:07;21.88;;;13.43;;
11743;SDS011;5929;51.906;7.674;2022-12-18T09:18:34;23.35;;;13.48;;
11743;SDS011;5929;51.906;7.674;2022-12-18T09:21:08;25.50;;;13.52;;
11743;SDS011;5929;51.906;7.674;2022-12-18T09:23:36;22.73;;;12.52;;
11743;SDS011;5929;51.906;7.674;2022-12-18T09:26:03;26.30;;;12.73;;
11743;SDS011;5929;51.906;7.674;2022-12-18T09:28:30;21.48;;;12.57;;
11743;SDS011;5929;51.906;7.674;2022-12-18T09:31:03;20.85;;;12.40;;
11743;SDS011;5929;51.906;7.674;2022-12-18T09:33:31;22.40;;;13.32;;
11743;SDS011;5929;51.906;7.674;2022-12-18T09:36:00;24.27;;;13.95;;
11743;SDS011;5929;51.906;7.674;2022-12-18T09:38:29;21.10;;;12.50;;
11743;SDS011;5929;51.906;7.674;2022-12-18T09:40:56;20.98;;;12.82;;
11743;SDS011;5929;51.906;7.674;2022-12-18T09:43:30;20.42;;;12.73;;
11743;SDS011;5929;51.906;7.674;2022-12-18T09:46:04;22.08;;;12.82;;
11743;SDS011;5929;51.906;7.674;2022-12-18T09:48:35;21.65;;;12.90;;
11743;SDS011;5929;51.906;7.674;2022-12-18T09:51:08;21.55;;;12.57;;
11743;SDS011;5929;51.906;7.674;2022-12-18T09:53:42;22.50;;;12.02;;
11743;SDS011;5929;51.906;7.674;2022-12-18T09:56:15;20.45;;;11.70;;
11743;SDS011;5929;51.906;7.674;2022-12-18T09:58:45;19.08;;;11.55;;
11743;SDS011;5929;51.906;7.674;2022-12-18T10:01:19;25.02;;;13.32;;
11743;SDS011;5929;51.906;7.674;2022-12-18T10:03:48;25.17;;;13.93;;
11743;SDS011;5929;51.906;7.674;2022-12-18T10:06:15;20.40;;;12.57;;
11743;SDS011;5929;51.906;7.674;2022-12-18T10:08:51;21.20;;;12.13;;
11743;SDS011;5929;51.906;7.674;2022-12-18T10:11:26;22.60;;;12.35;;
11743;SDS011;5929;51.906;7.674;2022-12-18T10:14:05;22.05;;;11.48;;
11743;SDS011;5929;51.906;7.674;2022-12-18T10:16:39;19.50;;;11.27;;
11743;SDS011;5929;51.906;7.674;2022-12-18T10:19:18;20.55;;;10.65;;
11743;SDS011;5929;51.906;7.674;2022-12-18T10:21:57;17.52;;;10.70;;
11743;SDS011;5929;51.906;7.674;2022-12-18T10:24:31;17.48;;;10.35;;
11743;SDS011;5929;51.906;7.674;2022-12-18T10:27:08;20.85;;;11.10;;
11743;SDS011;5929;51.906;7.674;2022-12-18T10:29:40;17.20;;;10.20;;
11743;SDS011;5929;51.906;7.674;2022-12-18T10:32:09;18.27;;;11.10;;
11743;SDS011;5929;51.906;7.674;2022-12-18T10:34:43;18.38;;;10.80;;
11743;SDS011;5929;51.906;7.674;2022-12-18T10:37:12;18.02;;;10.75;;
11743;SDS011;5929;51.906;7.674;2022-12-18T10:39:44;17.88;;;10.85;;
11743;SDS011;5929;51.906;7.674;2022-12-18T10:42:14;19.27;;;10.77;;
11743;SDS011;5929;51.906;7.674;2022-12-18T10:44:46;18.63;;;10.95;;
11743;SDS011;5929;51.906;7.674;2022-12-18T10:47:28;18.55;;;11.90;;
11743;SDS011;5929;51.906;7.674;2022-12-18T10:49:54;20.00;;;12.35;;
11743;SDS011;5929;51.906;7.674;2022-12-18T10:52:22;17.77;;;11.32;;
11743;SDS011;5929;51.906;7.674;2022-12-18T10:54:55;19.83;;;12.60;;
11743;SDS011;5929;51.906;7.674;2022-12-18T10:57:34;20.23;;;11.00;;
11743;SDS011;5929;51.906;7.674;2022-12-18T11:00:21;19.83;;;11.77;;
11743;SDS011;5929;51.906;7.674;2022-12-18T11:02:52;18.63;;;10.65;;
11743;SDS011;5929;51.906;7.674;2022-12-18T11:05:27;15.93;;;10.55;;
11743;SDS011;5929;51.906;7.674;2022-12-18T11:07:56;17.02;;;10.50;;
11743;SDS011;5929;51.906;7.674;2022-12-18T11:10:28;18.33;;;10.45;;
11743;SDS011;5929;51.906;7.674;2022-12-18T11:13:09;14.95;;;10.40;;
11743;SDS011;5929;51.906;7.674;2022-12-18T11:15:39;17.67;;;10.55;;
11743;SDS011;5929;51.906;7.674;2022-12-18T11:18:14;17.63;;;9.43;;
11743;SDS011;5929;51.906;7.674;2022-12-18T11:20:49;18.20;;;9.95;;
11743;SDS011;5929;51.906;7.674;2022-12-18T11:23:18;19.38;;;9.77;;
11743;SDS011;5929;51.906;7.674;2022-12-18T11:25:51;15.25;;;9.75;;
11743;SDS011;5929;51.906;7.674;2022-12-18T11:28:25;19.13;;;12.00;;
11743;SDS011;5929;51.906;7.674;2022-12-18T11:31:18;18.17;;;11.35;;
11743;SDS011;5929;51.906;7.674;2022-12-18T11:34:01;16.52;;;10.15;;
11743;SDS011;5929;51.906;7.674;2022-12-18T11:36:36;19.23;;;11.07;;
11743;SDS011;5929;51.906;7.674;2022-12-18T11:39:10;17.13;;;10.27;;
11743;SDS011;5929;51.906;7.674;2022-12-18T11:41:46;17.13;;;9.82;;
11743;SDS011;5929;51.906;7.674;2022-12-18T11:44:35;16.95;;;10.77;;
11743;SDS011;5929;51.906;7.674;2022-12-18T11:47:09;17.25;;;10.60;;
11743;SDS011;5929;51.906;7.674;2022-12-18T11:49:45;22.70;;;15.18;;
11743;SDS011;5929;51.906;7.674;2022-12-18T11:52:15;21.77;;;14.10;;
11743;SDS011;5929;51.906;7.674;2022-12-18T11:54:45;22.65;;;11.43;;
11743;SDS011;5929;51.906;7.674;2022-12-18T11:57:15;19.10;;;10.63;;
11743;SDS011;5929;51.906;7.674;2022-12-18T11:59:56;20.15;;;11.73;;
11743;SDS011;5929;51.906;7.674;2022-12-18T12:02:34;20.05;;;11.93;;
11743;SDS011;5929;51.906;7.674;2022-12-18T12:05:18;21.20;;;13.38;;
11743;SDS011;5929;51.906;7.674;2022-12-18T12:07:56;21.15;;;12.05;;
11743;SDS011;5929;51.906;7.674;2022-12-18T12:10:37;23.20;;;13.20;;
11743;SDS011;5929;51.906;7.674;2022-12-18T12:13:16;21.58;;;13.52;;
11743;SDS011;5929;51.906;7.674;2022-12-18T12:15:59;23.58;;;14.98;;
11743;SDS011;5929;51.906;7.674;2022-12-18T12:18:35;24.05;;;12.88;;
11743;SDS011;5929;51.906;7.674;2022-12-18T12:21:14;23.80;;;13.25;;
11743;SDS011;5929;51.906;7.674;2022-12-18T12:23:47;22.35;;;12.57;;
11743;SDS011;5929;51.906;7.674;2022-12-18T12:26:19;24.20;;;13.48;;
11743;SDS011;5929;51.906;7.674;2022-12-18T12:29:04;23.20;;;13.57;;
11743;SDS011;5929;51.906;7.674;2022-12-18T12:31:45;27.27;;;14.32;;
11743;SDS011;5929;51.906;7.674;2022-12-18T12:34:22;25.00;;;13.77;;
11743;SDS011;5929;51.906;7.674;2022-12-18T12:36:57;23.98;;;14.45;;
11743;SDS011;5929;51.906;7.674;2022-12-18T12:39:40;20.77;;;13.32;;
11743;SDS011;5929;51.906;7.674;2022-12-18T12:42:11;23.35;;;13.48;;
11743;SDS011;5929;51.906;7.674;2022-12-18T12:45:03;22.55;;;14.40;;
11743;SDS011;5929;51.906;7.674;2022-12-18T12:47:33;23.13;;;14.55;;
11743;SDS011;5929;51.906;7.674;2022-12-18T12:50:05;22.35;;;14.30;;
11743;SDS011;5929;51.906;7.674;2022-12-18T12:52:39;27.00;;;15.82;;
11743;SDS011;5929;51.906;7.674;2022-12-18T12:55:13;19.80;;;13.48;;
11743;SDS011;5929;51.906;7.674;2022-12-18T12:57:43;31.60;;;19.30;;
11743;SDS011;5929;51.906;7.674;2022-12-18T13:00:16;31.67;;;17.88;;
11743;SDS011;5929;51.906;7.674;2022-12-18T13:02:46;22.98;;;14.93;;
11743;SDS011;5929;51.906;7.674;2022-12-18T13:05:18;26.27;;;15.00;;
11743;SDS011;5929;51.906;7.674;2022-12-18T13:07:51;23.15;;;15.38;;
11743;SDS011;5929;51.906;7.674;2022-12-18T13:13:07;22.38;;;14.75;;
11743;SDS011;5929;51.906;7.674;2022-12-18T13:15:41;23.23;;;13.80;;
11743;SDS011;5929;51.906;7.674;2022-12-18T13:18:17;23.05;;;13.70;;
11743;SDS011;5929;51.906;7.674;2022-12-18T13:20:45;25.73;;;15.88;;
11743;SDS011;5929;51.906;7.674;2022-12-18T13:23:27;26.35;;;16.13;;
11743;SDS011;5929;51.906;7.674;2022-12-18T13:25:57;28.23;;;18.75;;
11743;SDS011;5929;51.906;7.674;2022-12-18T13:34:34;24.70;;;15.55;;
11743;SDS011;5929;51.906;7.674;2022-12-18T13:43:25;24.20;;;13.93;;
11743;SDS011;5929;51.906;7.674;2022-12-18T13:45:59;21.48;;;13.82;;
11743;SDS011;5929;51.906;7.674;2022-12-18T13:48:47;21.08;;;13.85;;
11743;SDS011;5929;51.906;7.674;2022-12-18T13:51:17;23.88;;;14.35;;
11743;SDS011;5929;51.906;7.674;2022-12-18T13:53:47;22.30;;;13.75;;
11743;SDS011;5929;51.906;7.674;2022-12-18T13:56:17;28.70;;;16.02;;
11743;SDS011;5929;51.906;7.674;2022-12-18T13:59:02;24.38;;;14.73;;
11743;SDS011;5929;51.906;7.674;2022-12-18T14:01:41;21.92;;;13.75;;
11743;SDS011;5929;51.906;7.674;2022-12-18T14:04:18;22.92;;;13.55;;
11743;SDS011;5929;51.906;7.674;2022-12-18T14:06:52;21.48;;;13.02;;
11743;SDS011;5929;51.906;7.674;2022-12-18T14:09:24;21.00;;;12.43;;
11743;SDS011;5929;51.906;7.674;2022-12-18T14:11:52;24.40;;;14.30;;
11743;SDS011;5929;51.906;7.674;2022-12-18T14:14:42;24.33;;;13.43;;
11743;SDS011;5929;51.906;7.674;2022-12-18T14:17:10;24.48;;;14.80;;
11743;SDS011;5929;51.906;7.674;2022-12-18T14:19:42;25.52;;;15.63;;
11743;SDS011;5929;51.906;7.674;2022-12-18T14:22:14;24.52;;;16.50;;
11743;SDS011;5929;51.906;7.674;2022-12-18T14:24:43;26.65;;;17.17;;
11743;SDS011;5929;51.906;7.674;2022-12-18T14:27:12;37.85;;;23.45;;
11743;SDS011;5929;51.906;7.674;2022-12-18T14:29:46;41.40;;;23.55;;
11743;SDS011;5929;51.906;7.674;2022-12-18T14:32:13;42.35;;;24.17;;
11743;SDS011;5929;51.906;7.674;2022-12-18T14:34:43;40.88;;;24.13;;
11743;SDS011;5929;51.906;7.674;2022-12-18T14:37:11;37.60;;;20.92;;
11743;SDS011;5929;51.906;7.674;2022-12-18T14:39:40;29.88;;;18.27;;
11743;SDS011;5929;51.906;7.674;2022-12-18T14:42:17;27.08;;;17.17;;
11743;SDS011;5929;51.906;7.674;2022-12-18T14:44:44;29.15;;;17.42;;
11743;SDS011;5929;51.906;7.674;2022-12-18T14:47:13;33.13;;;19.00;;
11743;SDS011;5929;51.906;7.674;2022-12-18T14:49:41;25.42;;;16.35;;
11743;SDS011;5929;51.906;7.674;2022-12-18T14:52:16;27.08;;;15.48;;
11743;SDS011;5929;51.906;7.674;2022-12-18T14:54:48;21.08;;;13.38;;
11743;SDS011;5929;51.906;7.674;2022-12-18T14:57:18;19.75;;;12.60;;
11743;SDS011;5929;51.906;7.674;2022-12-18T14:59:48;16.92;;;10.73;;
11743;SDS011;5929;51.906;7.674;2022-12-18T15:02:16;19.25;;;11.43;;
11743;SDS011;5929;51.906;7.674;2022-12-18T15:04:53;18.52;;;11.35;;
11743;SDS011;5929;51.906;7.674;2022-12-18T15:07:27;18.30;;;11.35;;
11743;SDS011;5929;51.906;7.674;2022-12-18T15:10:09;17.70;;;10.88;;